createdAt,value
2019-04-22T00:00:04.953Z,102.6
2019-04-22T00:01:30.512Z,102.2
2019-04-22T00:02:17.418Z,101.2
2019-04-22T00:03:22.455Z,100.8
2019-04-22T00:04:54.412Z,101
2019-04-22T00:06:11.347Z,101
2019-04-22T00:07:21.972Z,101
2019-04-22T00:09:02.060Z,102.6
2019-04-22T00:10:04.417Z,102.9
2019-04-22T00:11:02.693Z,101.7
2019-04-22T00:12:19.319Z,102.2
2019-04-22T00:14:46.156Z,100.3
2019-04-22T00:16:46.747Z,100.5
2019-04-22T00:18:19.670Z,100.8
2019-04-22T00:20:08.419Z,101.5
2019-04-22T00:20:49.971Z,100.8
2019-04-22T00:23:39.008Z,105
2019-04-22T00:24:23.798Z,106.8
2019-04-22T00:27:03.504Z,105.2
2019-04-22T00:28:43.427Z,103.1
2019-04-22T00:30:07.099Z,104.3
2019-04-22T00:31:26.541Z,104
2019-04-22T00:32:04.815Z,105
2019-04-22T00:35:05.561Z,106.8
2019-04-22T00:35:41.150Z,109.2
2019-04-22T00:36:47.806Z,108.5
2019-04-22T00:38:23.266Z,107.5
2019-04-22T00:40:50.490Z,107.1
2019-04-22T00:42:57.816Z,105.7
2019-04-22T00:43:39.028Z,105
2019-04-22T00:44:25.323Z,103.8
2019-04-22T00:45:47.690Z,103.1
2019-04-22T00:48:20.450Z,101.2
2019-04-22T00:49:52.098Z,100.1
2019-04-22T00:50:45.841Z,99.1
2019-04-22T00:51:56.733Z,98.2
2019-04-22T00:52:09.124Z,97.3
2019-04-22T00:52:27.920Z,97.5
2019-04-22T00:56:32.395Z,96.3
2019-04-22T00:58:01.105Z,96.6
2019-04-22T00:58:44.724Z,98
2019-04-22T01:01:07.656Z,96.6
2019-04-22T01:01:30.931Z,96.1
2019-04-22T01:04:19.733Z,96.3
2019-04-22T01:05:00.569Z,96.8
2019-04-22T01:05:54.798Z,96.1
2019-04-22T01:07:28.313Z,96.3
2019-04-22T01:09:09.900Z,95.4
2019-04-22T01:10:18.623Z,94.9
2019-04-22T01:11:02.851Z,95.6
2019-04-22T01:11:44.358Z,94.7
2019-04-22T01:12:56.581Z,94.7
2019-04-22T01:14:00.890Z,95.9
2019-04-22T01:14:53.623Z,97.5
2019-04-22T01:15:46.805Z,97.5
2019-04-22T01:17:05.838Z,97.5
2019-04-22T01:21:28.625Z,96.3
2019-04-22T01:22:04.474Z,94.7
2019-04-22T01:23:17.797Z,93.8
2019-04-22T01:23:34.224Z,95.9
2019-04-22T01:25:36.316Z,94.5
2019-04-22T01:26:38.305Z,95.4
2019-04-22T01:27:26.138Z,95.9
2019-04-22T01:28:30.027Z,96.1
2019-04-22T01:29:10.842Z,98
2019-04-22T01:30:14.380Z,98.2
2019-04-22T01:30:55.502Z,97.5
2019-04-22T01:31:31.260Z,97.5
2019-04-22T01:32:41.602Z,98
2019-04-22T01:33:46.387Z,97.5
2019-04-22T01:35:17.671Z,96.3
2019-04-22T01:36:30.001Z,96.8
2019-04-22T01:37:40.323Z,96.6
2019-04-22T01:38:36.111Z,96.1
2019-04-22T01:41:48.226Z,96.1
2019-04-22T01:43:58.564Z,96.3
2019-04-22T01:46:15.822Z,97
2019-04-22T01:48:02.152Z,96.8
2019-04-22T01:48:54.153Z,99.1
2019-04-22T01:49:58.946Z,99.8
2019-04-22T01:50:49.504Z,100.3
2019-04-22T01:51:51.607Z,100.3
2019-04-22T01:53:57.452Z,101.9
2019-04-22T01:56:13.119Z,102.4
2019-04-22T01:56:46.512Z,101.7
2019-04-22T01:57:28.214Z,102.2
2019-04-22T01:58:43.744Z,101
2019-04-22T01:59:40.008Z,100.3
2019-04-22T02:02:02.426Z,100.3
2019-04-22T02:02:57.127Z,100.8
2019-04-22T02:03:54.317Z,100.3
2019-04-22T02:04:59.284Z,101
2019-04-22T02:07:09.158Z,102.9
2019-04-22T02:07:48.061Z,102.4
2019-04-22T02:09:00.357Z,101.5
2019-04-22T02:10:02.050Z,100.8
2019-04-22T02:12:52.970Z,102.2
2019-04-22T02:14:03.835Z,101.2
2019-04-22T02:16:05.525Z,101.7
2019-04-22T02:16:41.093Z,102.4
2019-04-22T02:18:09.460Z,103.3
2019-04-22T02:19:30.163Z,103.8
2019-04-22T02:19:57.095Z,104.3
2019-04-22T02:23:15.098Z,106.6
2019-04-22T02:24:25.940Z,104
2019-04-22T02:27:10.323Z,103.8
2019-04-22T02:29:21.745Z,104.3
2019-04-22T02:31:13.646Z,101.9
2019-04-22T02:32:38.544Z,101.9
2019-04-22T02:35:47.906Z,98.4
2019-04-22T02:36:07.831Z,99.4
2019-04-22T02:36:40.798Z,99.1
2019-04-22T02:39:17.090Z,101
2019-04-22T02:40:03.269Z,101
2019-04-22T02:41:30.419Z,102.4
2019-04-22T02:43:43.326Z,103.3
2019-04-22T02:44:41.771Z,104.3
2019-04-22T02:45:49.698Z,104
2019-04-22T02:46:52.217Z,105.4
2019-04-22T02:47:19.949Z,105.7
2019-04-22T02:50:27.858Z,104.5
2019-04-22T02:51:27.583Z,102.9
2019-04-22T02:51:51.917Z,103.3
2019-04-22T02:53:44.261Z,104
2019-04-22T02:54:54.344Z,101.9
2019-04-22T02:55:48.651Z,102.2
2019-04-22T02:57:46.845Z,102.9
2019-04-22T02:59:46.385Z,103.6
2019-04-22T02:59:46.386Z,104
2019-04-22T03:00:21.239Z,104.5
2019-04-22T03:01:40.999Z,105.2
2019-04-22T03:02:28.001Z,105.4
2019-04-22T03:05:26.401Z,105
2019-04-22T03:06:15.218Z,103.1
2019-04-22T03:07:02.977Z,102.4
2019-04-22T03:09:47.278Z,103.8
2019-04-22T03:10:18.629Z,103.8
2019-04-22T03:13:20.905Z,103.8
2019-04-22T03:14:47.678Z,101.2
2019-04-22T03:17:20.311Z,101.2
2019-04-22T03:19:13.555Z,101.7
2019-04-22T03:19:49.938Z,100.8
2019-04-22T03:20:24.037Z,100.1
2019-04-22T03:21:30.946Z,99.6
2019-04-22T03:21:54.128Z,98.9
2019-04-22T03:22:54.835Z,97.7
2019-04-22T03:25:13.875Z,98.7
2019-04-22T03:27:29.310Z,98
2019-04-22T03:28:08.194Z,97
2019-04-22T03:29:10.465Z,96.6
2019-04-22T03:30:41.373Z,97.5
2019-04-22T03:31:57.347Z,97
2019-04-22T03:33:15.645Z,98.4
2019-04-22T03:36:04.230Z,98.9
2019-04-22T03:36:57.011Z,99.8
2019-04-22T03:37:03.441Z,99.4
2019-04-22T03:38:06.946Z,98.4
2019-04-22T03:39:44.393Z,98.2
2019-04-22T03:40:36.205Z,97.3
2019-04-22T03:42:31.621Z,95.6
2019-04-22T03:43:01.798Z,94.7
2019-04-22T03:43:53.789Z,94.2
2019-04-22T03:44:59.889Z,92.8
2019-04-22T03:45:29.957Z,94
2019-04-22T03:47:15.826Z,93.1
2019-04-22T03:49:09.037Z,94
2019-04-22T03:51:15.895Z,94
2019-04-22T03:52:34.459Z,93.5
2019-04-22T03:58:00.985Z,92.1
2019-04-22T04:02:01.687Z,92.6
2019-04-22T04:03:39.121Z,93.1
2019-04-22T04:04:58.159Z,93.1
2019-04-22T04:06:49.497Z,95.9
2019-04-22T04:07:19.877Z,94.9
2019-04-22T04:11:06.078Z,94
2019-04-22T04:11:51.500Z,94.9
2019-04-22T04:12:37.155Z,94.9
2019-04-22T04:14:45.854Z,96.1
2019-04-22T04:15:33.845Z,95.4
2019-04-22T04:16:19.039Z,94
2019-04-22T04:17:20.091Z,94.7
2019-04-22T04:18:46.362Z,93.3
2019-04-22T04:19:55.847Z,93.1
2019-04-22T04:21:25.798Z,91.9
2019-04-22T04:23:45.679Z,92.4
2019-04-22T04:24:21.935Z,92.6
2019-04-22T04:24:31.658Z,91.2
2019-04-22T04:26:54.624Z,92.4
2019-04-22T04:29:13.107Z,92.1
2019-04-22T04:29:44.980Z,92.1
2019-04-22T04:30:35.648Z,92.8
2019-04-22T04:30:59.428Z,92.8
2019-04-22T04:32:41.163Z,92.6
2019-04-22T04:32:52.246Z,93.5
2019-04-22T04:33:53.631Z,91.4
2019-04-22T04:35:52.424Z,91.7
2019-04-22T04:37:06.511Z,91.9
2019-04-22T04:37:51.147Z,92.4
2019-04-22T04:41:41.316Z,92.8
2019-04-22T04:42:38.306Z,92.4
2019-04-22T04:44:01.121Z,92.1
2019-04-22T04:45:23.270Z,93.1
2019-04-22T04:46:35.535Z,92.4
2019-04-22T04:47:54.266Z,92.6
2019-04-22T04:50:06.714Z,91.7
2019-04-22T04:50:46.791Z,91
2019-04-22T04:51:37.304Z,91.2
2019-04-22T04:53:20.101Z,91
2019-04-22T04:54:21.171Z,90.5
2019-04-22T04:54:58.613Z,90
2019-04-22T04:55:45.392Z,90.5
2019-04-22T04:57:04.619Z,91
2019-04-22T04:58:46.031Z,88.9
2019-04-22T05:01:22.584Z,87.5
2019-04-22T05:03:56.543Z,87.2
2019-04-22T05:05:47.355Z,85.4
2019-04-22T05:06:42.464Z,84.9
2019-04-22T05:08:27.183Z,86.1
2019-04-22T05:10:08.883Z,87
2019-04-22T05:11:34.703Z,86.5
2019-04-22T05:13:00.644Z,85.6
2019-04-22T05:13:48.570Z,85.4
2019-04-22T05:13:57.044Z,85.1
2019-04-22T05:14:28.316Z,84
2019-04-22T05:15:18.261Z,85.1
2019-04-22T05:16:16.694Z,85.4
2019-04-22T05:17:25.017Z,84.9
2019-04-22T05:18:50.336Z,87
2019-04-22T05:19:30.535Z,87.9
2019-04-22T05:20:31.775Z,87.9
2019-04-22T05:21:29.343Z,90.3
2019-04-22T05:22:03.917Z,89.6
2019-04-22T05:22:44.080Z,89.8
2019-04-22T05:24:09.174Z,89.8
2019-04-22T05:25:26.382Z,91
2019-04-22T05:26:56.530Z,90.5
2019-04-22T05:28:23.520Z,90
2019-04-22T05:29:04.929Z,89.6
2019-04-22T05:30:53.309Z,89.8
2019-04-22T05:31:37.011Z,89.1
2019-04-22T05:32:16.276Z,89.6
2019-04-22T05:32:36.837Z,90.5
2019-04-22T05:33:47.550Z,90.5
2019-04-22T05:35:06.354Z,90
2019-04-22T05:36:39.895Z,90.5
2019-04-22T05:38:16.943Z,90.3
2019-04-22T05:40:16.152Z,91.9
2019-04-22T05:40:55.921Z,92.8
2019-04-22T05:42:49.281Z,93.1
2019-04-22T05:43:58.019Z,93.8
2019-04-22T05:45:24.604Z,93.1
2019-04-22T05:46:39.051Z,92.6
2019-04-22T05:47:51.692Z,93.1
2019-04-22T05:48:53.439Z,94
2019-04-22T05:49:34.511Z,94.9
2019-04-22T05:50:36.526Z,94.9
2019-04-22T05:51:54.415Z,94.7
2019-04-22T05:53:32.223Z,96.1
2019-04-22T05:57:23.179Z,96.3
2019-04-22T05:57:43.663Z,96.3
2019-04-22T05:59:03.356Z,96.6
2019-04-22T06:00:06.120Z,97.5
2019-04-22T06:01:50.126Z,97.7
2019-04-22T06:02:52.783Z,96.8
2019-04-22T06:03:01.399Z,97
2019-04-22T06:04:09.401Z,97
2019-04-22T06:06:53.433Z,97
2019-04-22T06:07:52.020Z,97.7
2019-04-22T06:08:50.548Z,98.7
2019-04-22T06:11:07.954Z,99.6
2019-04-22T06:12:25.846Z,100.8
2019-04-22T06:13:38.277Z,101.5
2019-04-22T06:14:30.598Z,100.5
2019-04-22T06:15:37.133Z,100.5
2019-04-22T06:18:22.252Z,99.1
2019-04-22T06:19:13.340Z,98.2
2019-04-22T06:19:57.321Z,97.5
2019-04-22T06:20:36.747Z,96.1
2019-04-22T06:21:36.888Z,96.1
2019-04-22T06:23:03.667Z,97
2019-04-22T06:24:27.111Z,97.7
2019-04-22T06:25:08.841Z,96.6
2019-04-22T06:27:32.592Z,97.3
2019-04-22T06:29:14.625Z,97.5
2019-04-22T06:30:20.435Z,98
2019-04-22T06:30:28.226Z,99.4
2019-04-22T06:32:10.044Z,98.7
2019-04-22T06:33:54.250Z,98.4
2019-04-22T06:34:16.919Z,97.5
2019-04-22T06:36:01.621Z,99.8
2019-04-22T06:38:30.035Z,100.3
2019-04-22T06:41:03.757Z,97.7
2019-04-22T06:42:13.169Z,98
2019-04-22T06:43:08.376Z,98.2
2019-04-22T06:44:23.667Z,97
2019-04-22T06:44:51.408Z,97.5
2019-04-22T06:47:04.774Z,97
2019-04-22T06:48:54.251Z,97.3
2019-04-22T06:49:34.826Z,97
2019-04-22T06:50:22.851Z,95.9
2019-04-22T06:50:41.491Z,95.6
2019-04-22T06:51:44.655Z,96.1
2019-04-22T06:54:01.563Z,94.9
2019-04-22T06:54:54.120Z,93.5
2019-04-22T06:55:59.285Z,95.2
2019-04-22T06:56:59.092Z,96.1
2019-04-22T06:57:30.097Z,97
2019-04-22T06:58:52.135Z,96.1
2019-04-22T06:59:58.416Z,95.6
2019-04-22T07:01:54.376Z,95.9
2019-04-22T07:04:02.614Z,95.4
2019-04-22T07:07:12.052Z,96.1
2019-04-22T07:07:44.477Z,94.9
2019-04-22T07:09:40.950Z,93.5
2019-04-22T07:10:41.863Z,93.5
2019-04-22T07:11:05.594Z,93.5
2019-04-22T07:12:16.838Z,93.1
2019-04-22T07:14:16.132Z,92.1
2019-04-22T07:14:53.209Z,93.3
2019-04-22T07:16:03.446Z,94
2019-04-22T07:18:10.964Z,93.8
2019-04-22T07:19:27.456Z,94.5
2019-04-22T07:21:43.387Z,96.8
2019-04-22T07:22:44.820Z,96.1
2019-04-22T07:24:06.668Z,95.2
2019-04-22T07:24:58.076Z,95.9
2019-04-22T07:25:51.712Z,95.9
2019-04-22T07:26:44.696Z,94.7
2019-04-22T07:28:48.719Z,94
2019-04-22T07:29:46.284Z,92.8
2019-04-22T07:31:10.148Z,92.4
2019-04-22T07:31:49.175Z,92.8
2019-04-22T07:33:11.228Z,92.1
2019-04-22T07:34:32.922Z,92.4
2019-04-22T07:37:36.639Z,91.7
2019-04-22T07:39:22.878Z,92.6
2019-04-22T07:39:49.658Z,93.1
2019-04-22T07:42:11.846Z,91.9
2019-04-22T07:42:41.574Z,92.6
2019-04-22T07:44:44.546Z,93.5
2019-04-22T07:44:54.620Z,93.8
2019-04-22T07:46:25.809Z,94.5
2019-04-22T07:46:56.106Z,96.1
2019-04-22T07:48:00.493Z,95.4
2019-04-22T07:49:18.099Z,95.4
2019-04-22T07:50:12.630Z,96.8
2019-04-22T07:51:35.932Z,97.3
2019-04-22T07:52:27.178Z,98
2019-04-22T07:53:55.663Z,99.4
2019-04-22T07:54:46.403Z,100.1
2019-04-22T07:56:50.354Z,99.8
2019-04-22T08:01:48.173Z,97.7
2019-04-22T08:02:49.906Z,98.9
2019-04-22T08:04:53.603Z,99.4
2019-04-22T08:05:51.302Z,98.9
2019-04-22T08:07:12.215Z,98.9
2019-04-22T08:09:35.432Z,101.2
2019-04-22T08:11:43.325Z,101.2
2019-04-22T08:13:03.515Z,101.5
2019-04-22T08:14:45.347Z,99.4
2019-04-22T08:16:09.632Z,98
2019-04-22T08:18:33.899Z,97.7
2019-04-22T08:20:15.437Z,97.5
2019-04-22T08:20:46.977Z,97.3
2019-04-22T08:21:50.473Z,96.8
2019-04-22T08:22:50.379Z,96.1
2019-04-22T08:23:56.359Z,96.1
2019-04-22T08:28:02.843Z,98.2
2019-04-22T08:29:05.469Z,99.6
2019-04-22T08:30:20.178Z,99.6
2019-04-22T08:31:13.363Z,98.4
2019-04-22T08:32:21.539Z,98.2
2019-04-22T08:34:01.487Z,100.5
2019-04-22T08:34:24.441Z,100.3
2019-04-22T08:36:40.350Z,99.8
2019-04-22T08:37:50.615Z,99.4
2019-04-22T08:38:35.268Z,100.1
2019-04-22T08:39:13.403Z,99.4
2019-04-22T08:39:59.756Z,98
2019-04-22T08:40:35.971Z,99.6
2019-04-22T08:41:57.016Z,99.6
2019-04-22T08:42:49.353Z,99.8
2019-04-22T08:43:57.237Z,100.3
2019-04-22T08:45:31.634Z,101.5
2019-04-22T08:48:49.303Z,99.4
2019-04-22T08:49:31.781Z,99.4
2019-04-22T08:50:44.053Z,99.8
2019-04-22T08:52:40.429Z,97.7
2019-04-22T08:53:23.284Z,97.3
2019-04-22T08:54:50.081Z,98
2019-04-22T08:55:55.661Z,97.5
2019-04-22T08:57:10.164Z,98.2
2019-04-22T08:58:14.572Z,97.7
2019-04-22T09:00:49.683Z,98.7
2019-04-22T09:01:48.739Z,98.9
2019-04-22T09:02:53.595Z,98.7
2019-04-22T09:03:51.886Z,97.7
2019-04-22T09:04:47.849Z,98.2
2019-04-22T09:07:51.904Z,97
2019-04-22T09:08:48.608Z,95.4
2019-04-22T09:09:55.166Z,94.9
2019-04-22T09:10:48.135Z,94.7
2019-04-22T09:12:23.349Z,94.2
2019-04-22T09:13:20.028Z,94.2
2019-04-22T09:14:09.577Z,94.5
2019-04-22T09:17:39.401Z,98.7
2019-04-22T09:19:54.447Z,97.5
2019-04-22T09:22:16.693Z,97.7
2019-04-22T09:22:53.527Z,99.1
2019-04-22T09:24:09.924Z,98.9
2019-04-22T09:24:46.710Z,98.7
2019-04-22T09:25:48.333Z,97.3
2019-04-22T09:27:09.942Z,96.8
2019-04-22T09:28:00.405Z,96.6
2019-04-22T09:28:30.367Z,96.3
2019-04-22T09:31:05.572Z,96.8
2019-04-22T09:32:53.983Z,96.6
2019-04-22T09:33:58.849Z,94.7
2019-04-22T09:34:56.051Z,93.3
2019-04-22T09:38:18.509Z,92.1
2019-04-22T09:39:29.258Z,92.1
2019-04-22T09:39:59.506Z,92.6
2019-04-22T09:40:58.175Z,92.6
2019-04-22T09:44:40.059Z,90.3
2019-04-22T09:45:47.574Z,91.9
2019-04-22T09:46:40.841Z,92.1
2019-04-22T09:48:08.105Z,92.8
2019-04-22T09:49:44.114Z,92.8
2019-04-22T09:50:28.977Z,91.9
2019-04-22T09:51:36.711Z,91
2019-04-22T09:55:12.321Z,92.6
2019-04-22T09:56:09.464Z,92.4
2019-04-22T09:57:08.758Z,92.1
2019-04-22T09:57:24.288Z,92.1
2019-04-22T09:58:49.047Z,91.4
2019-04-22T10:00:13.632Z,92.1
2019-04-22T10:01:34.053Z,92.6
2019-04-22T10:03:19.413Z,92.6
2019-04-22T10:03:55.602Z,94.2
2019-04-22T10:04:46.369Z,94.5
2019-04-22T10:06:59.376Z,95.4
2019-04-22T10:07:31.621Z,95.9
2019-04-22T10:09:01.578Z,95.9
2019-04-22T10:10:34.643Z,94.9
2019-04-22T10:11:50.478Z,97
2019-04-22T10:12:09.703Z,97.7
2019-04-22T10:12:18.891Z,96.8
2019-04-22T10:14:59.708Z,96.6
2019-04-22T10:15:38.899Z,96.1
2019-04-22T10:16:59.632Z,94.2
2019-04-22T10:17:56.283Z,94.2
2019-04-22T10:18:45.483Z,95.9
2019-04-22T10:22:31.929Z,95.2
2019-04-22T10:23:12.486Z,93.5
2019-04-22T10:24:31.767Z,95.6
2019-04-22T10:27:12.754Z,97.5
2019-04-22T10:28:01.040Z,97.5
2019-04-22T10:28:52.244Z,97.7
2019-04-22T10:32:28.941Z,98.2
2019-04-22T10:33:04.148Z,98.9
2019-04-22T10:33:44.890Z,100.1
2019-04-22T10:34:16.585Z,100.3
2019-04-22T10:34:48.497Z,100.8
2019-04-22T10:35:26.673Z,99.8
2019-04-22T10:36:03.845Z,99.8
2019-04-22T10:37:23.915Z,99.1
2019-04-22T10:38:04.188Z,99.1
2019-04-22T10:39:04.464Z,98.9
2019-04-22T10:40:13.195Z,100.3
2019-04-22T10:41:05.071Z,101
2019-04-22T10:42:05.159Z,100.8
2019-04-22T10:43:03.580Z,100.5
2019-04-22T10:44:03.701Z,100.3
2019-04-22T10:45:04.083Z,99.8
2019-04-22T10:46:04.433Z,98.7
2019-04-22T10:47:04.426Z,98.7
2019-04-22T10:48:04.247Z,98
2019-04-22T10:49:04.462Z,99.4
2019-04-22T10:50:04.775Z,97.5
2019-04-22T10:51:04.833Z,98.7
2019-04-22T10:52:04.785Z,99.1
2019-04-22T10:53:03.730Z,98
2019-04-22T10:54:03.209Z,98
2019-04-22T10:55:03.693Z,98.2
2019-04-22T10:56:03.438Z,98.2
2019-04-22T10:57:04.063Z,99.1
2019-04-22T10:58:04.583Z,98.2
2019-04-22T10:59:04.981Z,97.5
2019-04-22T11:00:05.193Z,99.1
2019-04-22T11:01:05.622Z,98.4
2019-04-22T11:02:03.784Z,98.7
2019-04-22T11:03:04.401Z,98
2019-04-22T11:04:03.675Z,98.2
2019-04-22T11:05:04.238Z,98.2
2019-04-22T11:06:03.679Z,99.1
2019-04-22T11:07:15.449Z,98.9
2019-04-22T11:08:38.408Z,99.6
2019-04-22T11:09:11.021Z,97.7
2019-04-22T11:11:25.583Z,97.5
2019-04-22T11:11:56.327Z,98.2
2019-04-22T11:12:28.798Z,98
2019-04-22T11:13:03.239Z,98.7
2019-04-22T11:14:10.332Z,98.7
2019-04-22T11:15:03.720Z,99.4
2019-04-22T11:16:03.664Z,99.4
2019-04-22T11:17:09.108Z,99.1
2019-04-22T11:18:03.450Z,99.1
2019-04-22T11:19:03.755Z,99.8
2019-04-22T11:20:04.024Z,101.7
2019-04-22T11:21:03.476Z,103.1
2019-04-22T11:22:33.171Z,103.1
2019-04-22T11:23:04.897Z,101.7
2019-04-22T11:24:05.292Z,102.4
2019-04-22T11:25:03.853Z,102.2
2019-04-22T11:26:04.102Z,102.6
2019-04-22T11:27:05.414Z,100.3
2019-04-22T11:28:07.653Z,98.9
2019-04-22T11:29:03.830Z,99.6
2019-04-22T11:30:05.945Z,99.4
2019-04-22T11:31:03.910Z,99.1
2019-04-22T11:32:04.515Z,98.2
2019-04-22T11:33:04.781Z,99.6
2019-04-22T11:34:03.331Z,99.1
2019-04-22T11:35:03.975Z,100.1
2019-04-22T11:36:04.047Z,101.5
2019-04-22T11:37:03.505Z,102.9
2019-04-22T11:38:04.825Z,103.1
2019-04-22T11:39:16.995Z,103.6
2019-04-22T11:40:42.116Z,102.9
2019-04-22T11:41:07.369Z,102.9
2019-04-22T11:42:04.746Z,102.6
2019-04-22T11:43:04.220Z,104.7
2019-04-22T11:44:03.451Z,104
2019-04-22T11:45:03.815Z,105
2019-04-22T11:46:03.482Z,105
2019-04-22T11:47:03.633Z,105.2
2019-04-22T11:48:03.836Z,105.9
2019-04-22T11:49:03.963Z,104
2019-04-22T11:50:03.971Z,104.7
2019-04-22T11:51:05.889Z,104.3
2019-04-22T11:52:16.746Z,104.3
2019-04-22T11:53:04.980Z,105.2
2019-04-22T11:54:05.382Z,105.7
2019-04-22T11:55:04.734Z,104.7
2019-04-22T11:56:05.001Z,106.4
2019-04-22T11:57:05.698Z,107.5
2019-04-22T11:58:03.930Z,107.8
2019-04-22T11:59:05.055Z,107.1
2019-04-22T12:00:05.128Z,106.6
2019-04-22T12:01:03.694Z,107.1
2019-04-22T12:02:04.974Z,106.8
2019-04-22T12:03:05.450Z,107.3
2019-04-22T12:04:04.290Z,108.5
2019-04-22T12:05:04.048Z,108
2019-04-22T12:06:04.237Z,109.9
2019-04-22T12:07:06.102Z,109.9
2019-04-22T12:08:05.212Z,112.2
2019-04-22T12:09:04.076Z,111.3
2019-04-22T12:10:50.572Z,112.4
2019-04-22T12:11:11.662Z,112.4
2019-04-22T12:12:03.713Z,112.2
2019-04-22T12:13:04.132Z,111.5
2019-04-22T12:14:04.381Z,113.1
2019-04-22T12:15:04.369Z,112.9
2019-04-22T12:16:03.574Z,112.2
2019-04-22T12:17:03.834Z,111
2019-04-22T12:18:03.923Z,111.5
2019-04-22T12:19:03.413Z,111.3
2019-04-22T12:20:16.010Z,110.3
2019-04-22T12:21:05.514Z,108.5
2019-04-22T12:22:05.023Z,109.6
2019-04-22T12:23:03.454Z,109.4
2019-04-22T12:24:03.683Z,108.9
2019-04-22T12:25:04.350Z,108.9
2019-04-22T12:26:20.976Z,109.2
2019-04-22T12:27:04.548Z,109.9
2019-04-22T12:28:05.471Z,109.9
2019-04-22T12:29:04.949Z,109.2
2019-04-22T12:30:03.312Z,110.1
2019-04-22T12:31:04.022Z,111.3
2019-04-22T12:32:03.578Z,111.5
2019-04-22T12:33:15.051Z,110.1
2019-04-22T12:34:03.909Z,110.1
2019-04-22T12:35:05.406Z,110.1
2019-04-22T12:36:02.586Z,108.9
2019-04-22T12:37:02.896Z,108.9
2019-04-22T12:38:18.089Z,108
2019-04-22T12:39:03.597Z,108
2019-04-22T12:40:04.679Z,108
2019-04-22T12:41:12.162Z,108
2019-04-22T12:42:06.288Z,108
2019-04-22T12:43:10.630Z,108
2019-04-22T12:44:03.521Z,108
2019-04-22T12:45:04.439Z,108
2019-04-22T12:46:03.471Z,108
2019-04-22T12:47:09.781Z,108
2019-04-22T12:48:04.414Z,108
2019-04-22T12:49:04.636Z,108
2019-04-22T12:50:27.376Z,108
2019-04-22T12:51:03.134Z,108
2019-04-22T12:52:03.267Z,108
2019-04-22T12:53:18.113Z,108
2019-04-22T12:54:03.671Z,108
2019-04-22T12:55:03.995Z,108
2019-04-22T12:56:03.142Z,108
2019-04-22T12:57:04.122Z,108
2019-04-22T12:58:03.482Z,108
2019-04-22T12:59:05.752Z,108
2019-04-22T13:00:03.814Z,108
2019-04-22T13:01:03.484Z,108
2019-04-22T13:02:05.087Z,108
2019-04-22T13:03:03.309Z,108
2019-04-22T13:04:15.917Z,108
2019-04-22T13:05:04.135Z,108
2019-04-22T13:06:03.964Z,108
2019-04-22T13:07:04.039Z,108
2019-04-22T13:08:03.810Z,108
2019-04-22T13:09:04.385Z,108
2019-04-22T13:10:04.184Z,108
2019-04-22T13:11:18.432Z,108
2019-04-22T13:12:03.643Z,108
2019-04-22T13:13:05.144Z,108
2019-04-22T13:14:05.163Z,108
2019-04-22T13:15:07.973Z,108
2019-04-22T13:16:04.861Z,108
2019-04-22T13:17:04.173Z,108
2019-04-22T13:18:31.517Z,108
2019-04-22T13:19:12.901Z,108
2019-04-22T13:20:03.450Z,108
2019-04-22T13:21:02.733Z,108
2019-04-22T13:22:05.180Z,108
2019-04-22T13:23:04.149Z,108
2019-04-22T13:24:03.023Z,108
2019-04-22T13:25:04.151Z,108
2019-04-22T13:26:05.243Z,108
2019-04-22T13:27:03.445Z,108
2019-04-22T13:28:03.139Z,108
2019-04-22T13:29:05.354Z,108
2019-04-22T13:30:07.868Z,108
2019-04-22T13:31:05.838Z,108
2019-04-22T13:32:05.104Z,108
2019-04-22T13:33:03.238Z,108
2019-04-22T13:34:09.698Z,108
2019-04-22T13:35:07.161Z,108
2019-04-22T13:36:03.928Z,108
2019-04-22T13:37:03.379Z,108
2019-04-22T13:38:04.912Z,108
2019-04-22T13:39:03.134Z,108
2019-04-22T13:40:05.547Z,108
2019-04-22T13:41:37.260Z,108
2019-04-22T13:42:16.080Z,108
2019-04-22T13:43:03.085Z,108
2019-04-22T13:44:05.191Z,108
2019-04-22T13:45:04.226Z,108
2019-04-22T13:46:03.995Z,108
2019-04-22T13:48:01.357Z,108
2019-04-22T13:51:27.928Z,108
2019-04-22T13:52:00.667Z,108
2019-04-22T13:52:53.156Z,108
2019-04-22T13:52:53.160Z,108
2019-04-22T13:54:59.489Z,108
2019-04-22T13:55:15.677Z,108
2019-04-22T13:56:06.824Z,108
2019-04-22T13:56:56.467Z,108
2019-04-22T13:57:56.522Z,108
2019-04-22T13:58:48.195Z,108
2019-04-22T13:59:36.538Z,108
2019-04-22T14:00:07.988Z,108
2019-04-22T14:01:05.062Z,108
2019-04-22T14:02:04.627Z,108
2019-04-22T14:03:02.758Z,108
2019-04-22T14:04:03.009Z,108
2019-04-22T14:05:04.489Z,108
2019-04-22T14:06:05.049Z,108
2019-04-22T14:07:05.276Z,108
2019-04-22T14:08:08.645Z,108
2019-04-22T14:09:04.999Z,108
2019-04-22T14:10:04.538Z,108
2019-04-22T14:11:36.488Z,108
2019-04-22T14:12:11.534Z,108
2019-04-22T14:13:03.972Z,108
2019-04-22T14:14:03.052Z,108
2019-04-22T14:15:04.442Z,108
2019-04-22T14:16:04.922Z,108
2019-04-22T14:17:03.300Z,108
2019-04-22T14:18:05.319Z,108
2019-04-22T14:19:03.522Z,108
2019-04-22T14:20:04.954Z,108
2019-04-22T14:21:05.298Z,108
2019-04-22T14:22:04.120Z,108
2019-04-22T14:23:09.691Z,108
2019-04-22T14:24:06.648Z,108
2019-04-22T14:25:03.101Z,108
2019-04-22T14:26:05.411Z,108
2019-04-22T14:27:44.245Z,108
2019-04-22T14:28:17.441Z,108
2019-04-22T14:29:05.639Z,108
2019-04-22T14:30:03.083Z,108
2019-04-22T14:31:04.568Z,108
2019-04-22T14:32:23.594Z,108
2019-04-22T14:33:06.623Z,108
2019-04-22T14:34:10.133Z,108
2019-04-22T14:35:05.110Z,108
2019-04-22T14:36:05.075Z,108
2019-04-22T14:37:03.730Z,108
2019-04-22T14:38:06.408Z,108
2019-04-22T14:39:04.058Z,108
2019-04-22T14:40:11.905Z,108
2019-04-22T14:41:03.360Z,108
2019-04-22T14:43:05.669Z,108
2019-04-22T14:44:44.833Z,108
2019-04-22T14:46:38.669Z,108
2019-04-22T14:48:05.683Z,108
2019-04-22T14:48:55.540Z,108
2019-04-22T14:50:11.781Z,108
2019-04-22T14:51:06.972Z,108
2019-04-22T14:51:54.670Z,108
2019-04-22T14:52:57.848Z,108
2019-04-22T14:54:00.719Z,108
2019-04-22T14:54:49.121Z,108
2019-04-22T14:55:23.649Z,108
2019-04-22T14:56:04.534Z,108
2019-04-22T14:57:03.466Z,108
2019-04-22T14:58:02.995Z,108
2019-04-22T14:59:05.251Z,108
2019-04-22T15:00:04.755Z,108
2019-04-22T15:01:03.971Z,108
2019-04-22T15:02:03.653Z,108
2019-04-22T15:03:04.007Z,108
2019-04-22T15:04:03.291Z,108
2019-04-22T15:05:03.960Z,108
2019-04-22T15:06:04.336Z,108
2019-04-22T15:07:03.556Z,108
2019-04-22T15:08:03.743Z,108
2019-04-22T15:09:03.957Z,108
2019-04-22T15:10:04.315Z,108
2019-04-22T15:11:06.462Z,108
2019-04-22T15:12:34.003Z,108
2019-04-22T15:13:03.494Z,108
2019-04-22T15:14:05.503Z,108
2019-04-22T15:15:03.979Z,108
2019-04-22T15:16:03.652Z,108
2019-04-22T15:17:05.128Z,108
2019-04-22T15:18:03.274Z,108
2019-04-22T15:19:04.276Z,108
2019-04-22T15:20:03.957Z,108
2019-04-22T15:21:03.165Z,108
2019-04-22T15:22:05.219Z,108
2019-04-22T15:23:04.875Z,108
2019-04-22T15:24:04.788Z,108
2019-04-22T15:25:05.147Z,108
2019-04-22T15:26:04.754Z,108
2019-04-22T15:27:04.925Z,108
2019-04-22T15:28:03.839Z,108
2019-04-22T15:29:03.473Z,108
2019-04-22T15:30:03.795Z,108
2019-04-22T15:31:03.797Z,108
2019-04-22T15:32:04.941Z,108
2019-04-22T15:33:03.485Z,108
2019-04-22T15:34:04.672Z,108
2019-04-22T15:35:03.054Z,108
2019-04-22T15:36:03.771Z,108
2019-04-22T15:37:04.445Z,108
2019-04-22T15:38:04.900Z,108
2019-04-22T15:39:03.154Z,108
2019-04-22T15:40:04.841Z,108
2019-04-22T15:41:05.180Z,108
2019-04-22T15:42:27.722Z,108
2019-04-22T15:43:04.851Z,108
2019-04-22T15:44:03.841Z,108
2019-04-22T15:45:08.991Z,108
2019-04-22T15:46:05.732Z,108
2019-04-22T15:47:03.004Z,108
2019-04-22T15:48:04.291Z,108
2019-04-22T15:49:04.384Z,108
2019-04-22T15:50:03.999Z,108
2019-04-22T15:51:05.026Z,108
2019-04-22T15:52:08.125Z,108
2019-04-22T15:53:04.774Z,108
2019-04-22T15:54:03.792Z,108
2019-04-22T15:55:05.031Z,108
2019-04-22T15:56:05.073Z,108
2019-04-22T15:57:04.857Z,108
2019-04-22T15:58:04.051Z,108
2019-04-22T15:59:57.085Z,108
2019-04-22T16:00:41.367Z,108
2019-04-22T16:01:27.675Z,108
2019-04-22T16:02:08.192Z,108
2019-04-22T16:03:11.908Z,108
2019-04-22T16:04:03.276Z,108
2019-04-22T16:05:04.698Z,108
2019-04-22T16:06:04.206Z,108
2019-04-22T16:07:05.242Z,108
2019-04-22T16:08:03.515Z,108
2019-04-22T16:09:04.802Z,108
2019-04-22T16:10:03.981Z,108
2019-04-22T16:11:04.302Z,108
2019-04-22T16:12:28.450Z,108
2019-04-22T16:13:21.139Z,108
2019-04-22T16:14:04.425Z,108
2019-04-22T16:15:09.469Z,108
2019-04-22T16:16:04.952Z,108
2019-04-22T16:17:04.535Z,108
2019-04-22T16:18:10.919Z,108
2019-04-22T16:19:04.589Z,108